Time;durP1;ratioP1;P1;durP2;ratioP2;P2;SDS_P1;SDS_P2;PMS_P1;PMS_P2;Temp;Humidity;BMP_temperature;BMP_pressure;BME280_temperature;BME280_humidity;BME280_pressure;Samples;Min_cycle;Max_cycle;Signal;HPM_P1;HPM_P2
2022/04/30 00:00:36;;;;;;;4.43;2.05;;;;;;;25.81;30.35;102510.03;5077338;28;20032;-44
2022/04/30 00:03:05;;;;;;;5.80;2.35;;;;;;;25.83;30.33;102514.47;5076756;28;20033;-43
2022/04/30 00:05:33;;;;;;;5.25;2.00;;;;;;;25.81;30.31;102512.66;5075757;28;20121;-43
2022/04/30 00:08:03;;;;;;;5.72;2.20;;;;;;;25.76;30.04;102505.50;5076574;28;20028;-44
2022/04/30 00:10:37;;;;;;;7.00;2.17;;;;;;;25.69;30.29;102511.44;5075583;28;20041;-44
2022/04/30 00:13:07;;;;;;;6.10;2.28;;;;;;;25.66;30.32;102518.31;5076023;28;20110;-44
2022/04/30 00:15:35;;;;;;;6.53;2.20;;;;;;;25.75;30.25;102518.63;5075695;28;20094;-44
2022/04/30 00:18:04;;;;;;;5.00;2.10;;;;;;;25.78;29.84;102511.72;5076790;28;20051;-43
2022/04/30 00:20:33;;;;;;;8.90;3.15;;;;;;;25.69;29.81;102507.91;5076955;28;20028;-43
2022/04/30 00:23:01;;;;;;;8.00;2.17;;;;;;;25.67;29.91;102506.97;5076961;28;20029;-45
2022/04/30 00:25:30;;;;;;;5.03;1.80;;;;;;;25.54;29.90;102482.09;5077256;28;20036;-43
2022/04/30 00:27:59;;;;;;;8.55;2.47;;;;;;;25.61;29.69;102503.34;5075551;28;20051;-43
2022/04/30 00:30:28;;;;;;;5.38;2.13;;;;;;;25.52;30.20;102518.81;5076210;28;20367;-47
2022/04/30 00:32:56;;;;;;;5.00;2.25;;;;;;;25.54;30.39;102509.25;5076607;28;20091;-43
2022/04/30 00:35:25;;;;;;;5.65;2.92;;;;;;;25.54;29.95;102506.59;5076821;28;20020;-43
2022/04/30 00:37:54;;;;;;;4.28;1.83;;;;;;;25.55;29.96;102507.50;5075444;28;20474;-44
2022/04/30 00:40:22;;;;;;;8.80;2.10;;;;;;;25.61;29.71;102491.91;5075272;28;20062;-46
2022/04/30 00:42:51;;;;;;;5.75;2.00;;;;;;;25.59;30.14;102510.28;5076468;28;20031;-44
2022/04/30 00:45:20;;;;;;;5.40;1.85;;;;;;;25.52;29.97;102508.28;5075357;28;20020;-43
2022/04/30 00:47:49;;;;;;;6.50;2.55;;;;;;;25.51;29.56;102509.13;5076491;28;20036;-42
2022/04/30 00:50:18;;;;;;;6.18;2.13;;;;;;;25.36;29.94;102503.38;5074960;28;20024;-43
2022/04/30 00:52:49;;;;;;;4.90;1.98;;;;;;;25.43;29.97;102508.03;5076082;28;20380;-44
2022/04/30 00:55:21;;;;;;;5.65;2.15;;;;;;;25.51;29.54;102509.13;5075441;28;20117;-43
2022/04/30 00:57:54;;;;;;;5.90;1.98;;;;;;;25.41;29.79;102501.78;5075164;28;20452;-42
2022/04/30 01:00:23;;;;;;;4.30;1.90;;;;;;;25.43;29.71;102508.03;5076167;28;20111;-43
2022/04/30 01:02:51;;;;;;;5.22;2.17;;;;;;;25.30;29.63;102485.69;5074546;28;20031;-43
2022/04/30 01:05:20;;;;;;;6.65;2.10;;;;;;;25.31;30.01;102501.50;5058387;28;20090;-44
2022/04/30 01:07:49;;;;;;;5.88;1.83;;;;;;;25.40;29.69;102498.25;5074871;28;20016;-47
2022/04/30 01:10:17;;;;;;;3.80;1.70;;;;;;;25.48;29.78;102512.56;5075739;28;20509;-42
2022/04/30 01:12:47;;;;;;;4.63;1.90;;;;;;;25.41;30.05;102504.41;5075678;28;20058;-43
2022/04/30 01:15:16;;;;;;;4.15;1.60;;;;;;;25.34;29.77;102485.81;5074515;28;20109;-43
2022/04/30 01:17:44;;;;;;;6.80;2.35;;;;;;;25.42;29.62;102503.59;5075903;28;20021;-44
2022/04/30 01:20:13;;;;;;;6.05;1.70;;;;;;;25.37;29.42;102492.94;5075949;28;20021;-43
2022/04/30 01:23:02;;;;;;;4.13;1.83;;;;;;;25.35;29.85;102497.25;5074810;28;20089;-43
2022/04/30 01:25:31;;;;;;;4.38;1.90;;;;;;;25.29;29.75;102476.94;5074633;28;20020;-44
2022/04/30 01:28:01;;;;;;;5.93;1.85;;;;;;;25.37;29.58;102492.03;5057772;28;20029;-43
2022/04/30 01:30:30;;;;;;;4.93;1.30;;;;;;;25.32;29.67;102487.50;5075478;28;20025;-43
2022/04/30 01:38:34;;;;;;;4.72;1.85;;;;;;;25.27;29.19;102483.88;5074633;28;20047;-43
2022/04/30 01:41:03;;;;;;;3.45;1.33;;;;;;;25.18;29.47;102480.94;5074105;28;20476;-43
2022/04/30 01:43:33;;;;;;;4.40;2.08;;;;;;;25.13;29.40;102486.03;5073708;28;20120;-44
2022/04/30 01:46:02;;;;;;;4.57;2.20;;;;;;;25.10;29.65;102471.94;5074844;28;20066;-43
2022/04/30 01:48:31;;;;;;;6.82;1.67;;;;;;;25.16;29.28;102479.97;5057492;28;20033;-43
2022/04/30 01:51:00;;;;;;;5.82;1.85;;;;;;;25.04;29.41;102475.25;5075422;28;20017;-43
2022/04/30 01:53:28;;;;;;;3.83;1.55;;;;;;;25.08;29.61;102478.88;5073741;28;20032;-43
2022/04/30 01:55:56;;;;;;;2.22;1.40;;;;;;;25.11;29.60;102479.84;5073967;28;20025;-44
2022/04/30 01:58:24;;;;;;;3.88;1.45;;;;;;;25.06;29.42;102473.56;5074957;28;20039;-44
2022/04/30 02:00:53;;;;;;;4.55;1.55;;;;;;;25.10;29.42;102479.81;5075189;28;20071;-45
2022/04/30 02:03:23;;;;;;;4.57;1.55;;;;;;;25.13;29.29;102487.78;5075043;28;20040;-43
2022/04/30 02:05:51;;;;;;;6.10;1.55;;;;;;;25.10;29.24;102478.06;5073068;28;20036;-44
2022/04/30 02:08:20;;;;;;;5.75;1.52;;;;;;;25.10;29.28;102487.69;5075044;28;20035;-43
2022/04/30 02:10:49;;;;;;;5.32;1.98;;;;;;;25.05;29.50;102474.41;5074185;28;20514;-44
2022/04/30 02:13:23;;;;;;;4.05;1.27;;;;;;;25.01;29.54;102476.03;5074756;28;20033;-47
2022/04/30 02:15:53;;;;;;;4.10;1.70;;;;;;;25.05;29.23;102478.75;5074418;28;20024;-44
2022/04/30 02:18:23;;;;;;;2.78;1.20;;;;;;;25.10;29.50;102479.81;5073324;28;20028;-47
2022/04/30 02:20:52;;;;;;;7.35;2.45;;;;;;;25.04;29.51;102480.50;5073492;28;20056;-43
2022/04/30 02:23:22;;;;;;;3.00;1.60;;;;;;;25.02;29.31;102483.06;5074328;28;20024;-47
2022/04/30 02:25:51;;;;;;;6.53;2.08;;;;;;;24.99;29.49;102475.09;5074543;28;20025;-43
2022/04/30 02:28:20;;;;;;;4.63;1.77;;;;;;;25.10;29.31;102485.06;5074314;28;20021;-46
2022/04/30 02:30:48;;;;;;;4.72;1.95;;;;;;;24.97;29.09;102479.41;5074248;28;20051;-46
2022/04/30 02:33:17;;;;;;;4.38;1.35;;;;;;;24.92;29.59;102475.75;5074141;28;20463;-44
2022/04/30 02:35:46;;;;;;;4.93;1.70;;;;;;;24.87;29.29;102478.22;5074046;28;20169;-43
2022/04/30 02:38:15;;;;;;;3.15;1.63;;;;;;;24.92;29.25;102480.09;5074148;28;20035;-47
2022/04/30 02:40:43;;;;;;;4.03;1.70;;;;;;;24.87;29.40;102483.47;5072917;28;20113;-43
2022/04/30 02:43:15;;;;;;;4.90;1.45;;;;;;;24.87;29.27;102478.22;5073850;28;20037;-43
2022/04/30 02:45:44;;;;;;;4.35;1.60;;;;;;;24.88;29.50;102486.97;5073993;28;20496;-44
2022/04/30 02:48:14;;;;;;;3.13;1.50;;;;;;;24.83;29.31;102485.91;5072764;28;20177;-45
2022/04/30 02:50:43;;;;;;;2.60;1.45;;;;;;;24.82;29.27;102489.41;5073765;28;20058;-46
2022/04/30 02:53:12;;;;;;;4.50;1.50;;;;;;;24.80;29.09;102470.97;5073745;28;20123;-44
2022/04/30 02:55:40;;;;;;;8.00;1.92;;;;;;;24.77;29.61;102483.97;5073951;28;20035;-44
2022/04/30 03:00:57;;;;;;;6.70;2.03;;;;;;;24.73;29.78;102477.75;5070249;28;20058;-44
2022/04/30 03:03:29;;;;;;;3.33;1.60;;;;;;;24.78;29.51;102482.28;5073680;28;20095;-43
2022/04/30 03:05:58;;;;;;;7.63;2.10;;;;;;;24.75;29.18;102476.91;5074197;28;20025;-48
2022/04/30 03:08:27;;;;;;;5.55;1.48;;;;;;;24.74;29.35;102481.25;5073437;28;20031;-44
2022/04/30 03:10:58;;;;;;;4.88;1.73;;;;;;;24.74;29.19;102476.00;5073413;28;20052;-45
2022/04/30 03:13:26;;;;;;;4.95;1.67;;;;;;;24.76;29.15;102483.94;5073674;28;20040;-44
2022/04/30 03:15:56;;;;;;;5.90;1.73;;;;;;;24.71;29.49;102479.44;5073593;28;20031;-44
2022/04/30 03:21:55;;;;;;;5.93;1.75;;;;;;;24.73;29.08;102476.88;5073107;28;20412;-44
2022/04/30 03:23:59;;;;;;;5.97;1.55;;;;;;;24.73;29.49;102464.63;5069867;28;20486;-45
2022/04/30 03:26:28;;;;;;;3.58;1.60;;;;;;;24.72;29.24;102468.09;5072635;28;20059;-43
2022/04/30 03:28:56;;;;;;;3.15;1.45;;;;;;;24.75;29.17;102461.16;5073267;28;20020;-44
2022/04/30 03:31:24;;;;;;;5.05;1.48;;;;;;;24.75;29.23;102467.28;5073466;28;20481;-46
2022/04/30 03:33:53;;;;;;;4.47;1.60;;;;;;;24.76;29.51;102455.94;5073275;28;20529;-43
2022/04/30 03:36:22;;;;;;;2.63;1.35;;;;;;;24.75;29.13;102461.16;5073603;28;20025;-45
2022/04/30 03:38:50;;;;;;;4.30;1.45;;;;;;;24.73;29.17;102463.75;5073177;28;20387;-44
2022/04/30 03:41:19;;;;;;;4.80;1.55;;;;;;;24.79;28.95;102457.81;5073155;28;20025;-44
2022/04/30 03:43:48;;;;;;;5.45;1.63;;;;;;;24.73;29.31;102458.50;5073447;28;20021;-44
2022/04/30 03:46:17;;;;;;;5.75;1.77;;;;;;;24.74;29.33;102462.88;5073727;28;20060;-44
2022/04/30 03:48:47;;;;;;;7.78;2.35;;;;;;;24.67;29.24;102472.25;5072670;28;20085;-44
2022/04/30 03:51:16;;;;;;;7.15;1.90;;;;;;;24.52;29.18;102455.97;5073248;28;20390;-43
2022/04/30 03:53:44;;;;;;;5.97;1.67;;;;;;;24.49;29.46;102443.66;5072919;28;20165;-46
2022/04/30 03:56:13;;;;;;;3.10;1.52;;;;;;;24.48;29.53;102459.38;5072951;28;20116;-46
2022/04/30 03:58:41;;;;;;;5.15;1.92;;;;;;;24.56;29.17;102457.88;5073058;28;20489;-47
2022/04/30 04:01:10;;;;;;;4.97;1.58;;;;;;;24.52;29.19;102461.22;5073099;28;20059;-43
2022/04/30 04:03:39;;;;;;;9.15;1.90;;;;;;;24.60;29.12;102457.16;5071751;28;20032;-43
2022/04/30 04:06:07;;;;;;;3.88;1.60;;;;;;;24.62;29.19;102459.81;5073179;28;20025;-45
2022/04/30 04:08:36;;;;;;;3.40;1.27;;;;;;;24.64;29.36;102461.69;5073109;28;20066;-43
2022/04/30 04:11:10;;;;;;;4.93;1.70;;;;;;;24.49;29.43;102443.66;5072385;28;20052;-48
2022/04/30 04:19:18;;;;;;;5.65;1.75;;;;;;;24.64;29.47;102459.06;5069612;28;20419;-43
2022/04/30 04:21:45;;;;;;;4.32;1.63;;;;;;;24.65;28.88;102460.84;5072971;28;20166;-44
2022/04/30 04:27:01;;;;;;;4.03;1.48;;;;;;;24.58;29.39;102457.09;5072439;28;20490;-43
2022/04/30 04:29:30;;;;;;;3.22;1.67;;;;;;;24.61;29.23;102463.28;5072733;28;20410;-47
2022/04/30 04:31:58;;;;;;;4.60;1.80;;;;;;;24.52;29.20;102453.34;5072664;28;20107;-43
2022/04/30 04:34:27;;;;;;;6.78;2.05;;;;;;;24.51;28.95;102459.44;5055171;28;20438;-43
2022/04/30 04:36:54;;;;;;;3.72;1.50;;;;;;;24.53;29.19;102461.31;5071509;28;20020;-45
2022/04/30 04:39:22;;;;;;;3.15;1.45;;;;;;;24.53;29.61;102468.25;5077079;28;20040;-44
2022/04/30 04:41:51;;;;;;;2.53;1.30;;;;;;;24.54;29.19;102464.81;5076630;28;20550;-47
2022/04/30 04:44:21;;;;;;;4.95;1.85;;;;;;;24.49;29.75;102466.41;5076290;28;20028;-45
2022/04/30 04:46:50;;;;;;;2.45;1.08;;;;;;;24.48;29.35;102472.47;5076045;28;20494;-45
2022/04/30 04:49:18;;;;;;;6.03;1.70;;;;;;;24.57;29.09;102470.16;5074996;28;20039;-43
2022/04/30 04:51:47;;;;;;;3.03;1.27;;;;;;;24.52;29.50;102469.09;5076116;28;20051;-44
2022/04/30 04:54:16;;;;;;;1.98;1.10;;;;;;;24.45;29.12;102459.25;5076277;28;20111;-45
2022/04/30 04:56:45;;;;;;;4.95;1.60;;;;;;;24.55;28.94;102475.38;5074871;28;20024;-45
2022/04/30 04:59:14;;;;;;;2.85;1.45;;;;;;;24.49;29.41;102477.78;5076345;28;20497;-46
2022/04/30 05:01:43;;;;;;;4.25;1.48;;;;;;;24.49;29.06;102479.50;5076041;28;20032;-44
2022/04/30 05:04:11;;;;;;;4.25;1.45;;;;;;;24.45;29.12;102477.63;5075997;28;20032;-43
2022/04/30 05:06:40;;;;;;;3.78;1.67;;;;;;;24.51;29.37;102485.69;5074679;28;20031;-43
2022/04/30 05:09:08;;;;;;;4.80;1.80;;;;;;;24.53;29.45;102489.25;5075615;28;20113;-46
2022/04/30 05:11:37;;;;;;;4.85;1.85;;;;;;;24.54;29.26;102488.41;5075735;28;20048;-43
2022/04/30 05:14:06;;;;;;;4.18;1.35;;;;;;;24.47;29.13;102481.19;5076046;28;20032;-46
2022/04/30 05:16:34;;;;;;;4.82;1.77;;;;;;;24.51;29.00;102493.56;5075980;28;20091;-46
2022/04/30 05:19:05;;;;;;;2.63;1.38;;;;;;;24.50;29.47;102491.75;5075948;28;20416;-43
2022/04/30 05:21:33;;;;;;;4.03;1.45;;;;;;;24.49;29.22;102495.25;5075553;28;20036;-43
2022/04/30 05:24:02;;;;;;;3.25;1.45;;;;;;;24.48;29.51;102509.22;5075730;28;20025;-44
2022/04/30 05:26:32;;;;;;;4.15;1.33;;;;;;;24.51;29.03;102502.34;5075536;28;20055;-43
2022/04/30 05:29:01;;;;;;;4.10;1.20;;;;;;;24.53;29.24;102502.38;5074190;28;20398;-46
2022/04/30 05:31:29;;;;;;;4.40;1.60;;;;;;;24.56;29.02;102503.41;5075259;28;20025;-44
2022/04/30 05:33:58;;;;;;;4.00;1.50;;;;;;;24.53;29.30;102494.50;5075399;28;20489;-45
2022/04/30 05:36:27;;;;;;;3.95;1.90;;;;;;;24.53;29.52;102502.38;5075308;28;20063;-44
2022/04/30 05:38:55;;;;;;;7.80;2.10;;;;;;;24.59;29.37;102510.47;5076106;28;20060;-43
2022/04/30 05:41:24;;;;;;;6.40;1.33;;;;;;;24.50;29.19;102507.50;5074216;28;20032;-43
2022/04/30 05:43:52;;;;;;;4.85;1.63;;;;;;;24.55;29.59;102513.81;5073758;28;20033;-43
2022/04/30 05:46:21;;;;;;;3.28;1.30;;;;;;;24.59;29.51;102515.72;5074076;28;20363;-47
2022/04/30 05:48:50;;;;;;;4.82;1.60;;;;;;;24.60;29.49;102517.50;5073895;28;20029;-43
2022/04/30 05:51:20;;;;;;;7.53;1.98;;;;;;;24.63;29.17;102520.25;5075027;28;20481;-44
2022/04/30 05:53:48;;;;;;;4.03;1.58;;;;;;;24.62;29.44;102523.69;5075009;28;20390;-42
2022/04/30 05:56:17;;;;;;;3.67;1.20;;;;;;;24.65;29.58;102517.66;5073652;28;20032;-43
2022/04/30 05:58:45;;;;;;;3.85;1.35;;;;;;;24.63;29.37;102521.94;5075010;28;20382;-44
2022/04/30 06:01:14;;;;;;;3.88;1.67;;;;;;;24.64;29.77;102522.03;5075119;28;20024;-43
2022/04/30 06:03:43;;;;;;;4.97;1.42;;;;;;;24.67;29.41;102524.72;5074776;28;20394;-43
2022/04/30 06:06:11;;;;;;;6.05;1.60;;;;;;;24.71;29.37;102533.66;5074902;28;20028;-43
2022/04/30 06:08:40;;;;;;;6.00;1.85;;;;;;;24.49;29.42;102501.38;5073501;28;20028;-43
2022/04/30 06:11:09;;;;;;;4.40;1.30;;;;;;;24.65;29.67;102526.44;5074956;28;20048;-46
2022/04/30 06:13:37;;;;;;;3.67;1.40;;;;;;;24.70;29.72;102524.88;5074261;28;20118;-45
2022/04/30 06:16:05;;;;;;;7.93;1.73;;;;;;;24.65;29.57;102526.44;5074564;28;20028;-46
2022/04/30 06:18:34;;;;;;;6.60;1.60;;;;;;;24.65;29.89;102523.81;5074446;28;20071;-44
2022/04/30 06:21:02;;;;;;;4.20;1.70;;;;;;;24.68;29.84;102525.63;5074706;28;20024;-46
2022/04/30 06:23:31;;;;;;;3.85;1.67;;;;;;;24.58;29.93;102500.81;5073729;28;20415;-43
2022/04/30 06:26:00;;;;;;;4.10;1.75;;;;;;;24.73;29.72;102531.97;5074546;28;20036;-43
2022/04/30 06:28:28;;;;;;;3.03;1.05;;;;;;;24.74;29.68;102538.97;5072445;28;20029;-46
2022/04/30 06:30:56;;;;;;;3.33;1.48;;;;;;;24.78;29.77;102534.75;5074609;28;20029;-43
2022/04/30 06:33:25;;;;;;;4.88;1.50;;;;;;;24.79;29.75;102531.28;5074239;28;20458;-43
2022/04/30 06:35:53;;;;;;;5.95;1.75;;;;;;;24.77;29.90;102527.72;5074253;28;20036;-46
2022/04/30 06:38:22;;;;;;;6.68;1.88;;;;;;;24.72;29.78;102522.31;5074424;28;20103;-43
2022/04/30 06:40:51;;;;;;;3.83;1.48;;;;;;;24.81;30.25;102529.63;5074374;28;20024;-43
2022/04/30 06:43:19;;;;;;;8.40;2.22;;;;;;;24.82;29.85;102516.53;5074156;28;20056;-43
2022/04/30 06:45:48;;;;;;;7.55;2.03;;;;;;;24.88;29.67;102529.88;5074047;28;20107;-43
2022/04/30 06:48:17;;;;;;;3.95;1.40;;;;;;;24.81;29.84;102525.25;5074005;28;20534;-43
2022/04/30 06:50:45;;;;;;;3.78;1.50;;;;;;;24.92;30.15;102535.22;5072764;28;20029;-44
2022/04/30 06:58:54;;;;;;;6.47;1.73;;;;;;;24.97;30.08;102531.00;5067500;28;20043;-43
2022/04/30 07:03:55;;;;;;;7.97;1.88;;;;;;;25.06;29.64;102546.19;5073939;28;20037;-43
2022/04/30 07:06:23;;;;;;;7.25;1.52;;;;;;;24.99;29.70;102537.22;5073353;28;20029;-47
2022/04/30 07:08:52;;;;;;;7.25;2.47;;;;;;;25.03;29.70;102541.75;5073258;28;20028;-44
2022/04/30 07:11:21;;;;;;;4.38;1.42;;;;;;;25.05;29.95;102550.56;5073267;28;20484;-44
2022/04/30 07:13:49;;;;;;;6.78;1.52;;;;;;;25.10;29.57;102542.84;5073784;28;20032;-45
2022/04/30 07:16:18;;;;;;;7.47;1.88;;;;;;;25.08;29.99;102548.00;5073884;28;20146;-45
2022/04/30 07:18:47;;;;;;;4.82;2.35;;;;;;;25.17;29.90;102544.81;5073483;28;20029;-45
2022/04/30 07:21:16;;;;;;;35.28;9.57;;;;;;;25.12;29.83;102541.16;5072167;28;20035;-44
2022/04/30 07:23:44;;;;;;;56.88;14.50;;;;;;;25.14;29.64;102542.09;5072444;28;20082;-46
2022/04/30 07:26:13;;;;;;;59.58;18.50;;;;;;;25.15;29.70;102552.63;5072201;28;20362;-44
2022/04/30 07:28:42;;;;;;;61.92;18.52;;;;;;;25.14;29.66;102542.09;5072309;28;20537;-44
2022/04/30 07:31:10;;;;;;;67.63;19.27;;;;;;;25.18;29.57;102547.50;5072243;28;20037;-44
2022/04/30 07:33:39;;;;;;;58.03;16.05;;;;;;;25.23;29.69;102549.38;5073093;28;20036;-43
2022/04/30 07:36:08;;;;;;;50.10;15.80;;;;;;;25.23;29.67;102539.75;5055713;28;20083;-44
2022/04/30 07:38:36;;;;;;;74.97;21.45;;;;;;;25.24;29.42;102538.91;5072121;28;20077;-43
2022/04/30 07:41:05;;;;;;;67.32;18.15;;;;;;;25.22;29.67;102535.34;5055836;28;20021;-44
2022/04/30 07:43:34;;;;;;;52.03;15.27;;;;;;;25.31;29.24;102542.63;5073309;28;20111;-46
2022/04/30 07:46:02;;;;;;;66.72;17.75;;;;;;;25.26;29.31;102531.06;5073287;28;20029;-47
2022/04/30 07:48:31;;;;;;;56.03;15.75;;;;;;;25.30;29.30;102549.63;5072786;28;20533;-46
2022/04/30 07:51:00;;;;;;;57.40;15.57;;;;;;;25.38;29.50;102533.22;5073314;28;20427;-43
2022/04/30 07:53:29;;;;;;;45.38;13.35;;;;;;;25.39;29.54;102542.88;5088818;28;20405;-45
2022/04/30 07:55:58;;;;;;;53.60;13.55;;;;;;;25.44;29.56;102546.59;5071924;28;20021;-43
2022/04/30 07:58:26;;;;;;;38.47;12.38;;;;;;;25.45;29.06;102545.75;5088743;28;20048;-43
2022/04/30 08:00:54;;;;;;;40.72;12.30;;;;;;;25.45;29.31;102549.25;5073302;28;20025;-47
2022/04/30 08:03:23;;;;;;;40.78;11.40;;;;;;;25.49;29.44;102547.59;5073197;28;20027;-44
2022/04/30 08:05:51;;;;;;;37.70;10.13;;;;;;;25.48;29.25;102544.09;5072077;28;20024;-43
2022/04/30 08:08:20;;;;;;;38.53;10.13;;;;;;;25.52;29.37;102550.34;5071497;28;20032;-44
2022/04/30 08:10:48;;;;;;;33.55;8.85;;;;;;;25.53;29.27;102544.25;5071583;28;20044;-44
2022/04/30 08:13:17;;;;;;;31.60;9.57;;;;;;;25.61;29.11;102548.00;5075331;28;20040;-43
2022/04/30 08:15:45;;;;;;;24.13;7.90;;;;;;;25.65;29.00;102540.22;5092658;28;20090;-44
2022/04/30 08:18:14;;;;;;;31.55;9.23;;;;;;;25.59;29.27;102538.28;5091983;28;20029;-46
2022/04/30 08:20:43;;;;;;;28.33;7.97;;;;;;;25.65;29.19;102540.22;5077050;28;20024;-48
2022/04/30 08:23:10;;;;;;;21.02;7.30;;;;;;;25.63;29.15;102538.44;5076769;28;20028;-43
2022/04/30 08:25:39;;;;;;;24.45;8.05;;;;;;;25.66;29.60;102549.88;5076891;28;20032;-43
2022/04/30 08:28:08;;;;;;;22.38;7.25;;;;;;;25.74;29.54;102544.00;5076031;28;20025;-43
2022/04/30 08:30:35;;;;;;;20.95;6.22;;;;;;;25.72;29.35;102539.56;5075363;28;20047;-45
2022/04/30 08:33:03;;;;;;;21.90;6.63;;;;;;;25.78;29.07;102545.00;5076549;28;20081;-43
2022/04/30 08:35:32;;;;;;;17.92;6.90;;;;;;;25.82;29.19;102545.97;5076525;28;20036;-46
2022/04/30 08:38:01;;;;;;;21.25;6.30;;;;;;;25.85;29.22;102535.56;5076454;28;20032;-46
2022/04/30 08:40:29;;;;;;;16.60;5.82;;;;;;;25.85;29.61;102536.44;5075326;28;20074;-46
2022/04/30 08:43:08;;;;;;;16.70;5.90;;;;;;;25.87;29.10;102539.13;5076461;28;20130;-43
2022/04/30 08:45:38;;;;;;;14.82;5.20;;;;;;;25.89;29.04;102532.19;5058956;28;20029;-47
2022/04/30 08:48:09;;;;;;;18.23;5.50;;;;;;;25.88;29.36;102531.28;5075176;28;20029;-45
2022/04/30 08:50:39;;;;;;;16.67;5.43;;;;;;;25.93;29.12;102545.47;5076202;28;20020;-43
2022/04/30 08:53:08;;;;;;;15.50;4.60;;;;;;;25.95;29.14;102537.59;5075107;28;20064;-45
2022/04/30 08:55:36;;;;;;;14.80;4.38;;;;;;;25.83;28.94;102526.75;5075188;28;20035;-45
2022/04/30 08:58:05;;;;;;;14.25;4.82;;;;;;;25.95;28.90;102553.38;5074755;28;20025;-44
2022/04/30 09:00:41;;;;;;;11.80;3.85;;;;;;;25.94;29.06;102546.34;5076054;28;20043;-43
2022/04/30 09:03:09;;;;;;;11.07;4.00;;;;;;;25.87;28.56;102544.41;5075076;28;20035;-42
2022/04/30 09:05:39;;;;;;;8.50;3.38;;;;;;;25.91;28.97;102549.78;5058897;28;20421;-45
2022/04/30 09:08:07;;;;;;;10.63;3.75;;;;;;;25.97;28.95;102546.44;5075783;28;20559;-45
2022/04/30 09:10:38;;;;;;;13.65;3.80;;;;;;;25.97;28.77;102542.94;5058104;28;20478;-46
2022/04/30 09:13:12;;;;;;;11.60;3.85;;;;;;;25.99;28.65;102539.50;5075794;28;20059;-45
2022/04/30 09:15:41;;;;;;;8.13;3.33;;;;;;;26.03;28.98;102545.72;5074646;28;20086;-44
2022/04/30 09:18:11;;;;;;;12.57;4.03;;;;;;;26.02;28.86;102536.06;5076025;28;20032;-44
2022/04/30 09:20:50;;;;;;;8.60;3.53;;;;;;;26.04;28.95;102539.63;5074601;28;20466;-43
2022/04/30 09:23:31;;;;;;;8.25;2.75;;;;;;;26.06;28.59;102525.66;5090927;28;20029;-44
2022/04/30 09:26:03;;;;;;;6.50;2.78;;;;;;;26.11;28.52;102535.44;5075445;28;20035;-47
2022/04/30 09:28:33;;;;;;;10.32;2.95;;;;;;;26.05;28.93;102528.25;5074467;28;20115;-43
2022/04/30 09:31:21;;;;;;;7.45;2.53;;;;;;;26.06;28.77;102530.91;5074353;28;20470;-47
2022/04/30 09:33:51;;;;;;;10.30;2.72;;;;;;;26.13;28.93;102536.41;5058103;28;20078;-46
2022/04/30 09:39:19;;;;;;;7.05;2.60;;;;;;;26.18;28.85;102522.53;5071496;28;20037;-46
2022/04/30 09:41:47;;;;;;;7.18;2.63;;;;;;;26.19;28.78;102520.81;5075467;28;20115;-47
2022/04/30 09:44:17;;;;;;;9.80;2.85;;;;;;;26.23;28.84;102517.38;5074453;28;20032;-45
2022/04/30 09:46:46;;;;;;;7.88;2.63;;;;;;;26.25;28.90;102520.97;5074709;28;20043;-43
2022/04/30 09:54:49;;;;;;;5.90;2.33;;;;;;;26.28;28.92;102514.91;5071296;28;20041;-48
2022/04/30 09:57:20;;;;;;;10.88;2.63;;;;;;;26.29;28.91;102511.44;5075076;28;20111;-43
2022/04/30 09:59:51;;;;;;;6.10;1.92;;;;;;;26.27;28.61;102511.38;5073945;28;20111;-45
2022/04/30 10:02:20;;;;;;;8.23;2.47;;;;;;;26.34;28.67;102517.69;5073881;28;20025;-43
2022/04/30 10:04:49;;;;;;;5.85;1.98;;;;;;;26.33;28.73;102523.81;5074938;28;20036;-45
2022/04/30 10:07:21;;;;;;;10.18;2.13;;;;;;;26.31;28.84;102515.88;5074965;28;20029;-44
2022/04/30 10:09:56;;;;;;;5.50;1.90;;;;;;;26.36;29.15;102509.00;5057272;28;20115;-44
2022/04/30 10:12:27;;;;;;;5.50;2.10;;;;;;;26.42;28.96;102520.53;5073735;28;20422;-46
2022/04/30 10:15:08;;;;;;;4.90;1.98;;;;;;;26.44;28.67;102517.13;5074998;28;20028;-46
2022/04/30 10:17:41;;;;;;;7.60;2.08;;;;;;;26.46;28.73;102510.16;5075027;28;20112;-43
2022/04/30 10:20:15;;;;;;;5.70;1.95;;;;;;;26.46;28.99;102503.97;5073289;28;20494;-43
2022/04/30 10:22:53;;;;;;;;;;;;;;;26.58;28.53;102506.94;5074180;28;20394;-44
2022/04/30 10:25:46;;;;;;;7.80;2.55;;;;;;;26.54;28.51;102494.56;5074820;28;19916;-44
2022/04/30 10:28:18;;;;;;;5.00;2.00;;;;;;;26.59;28.37;102499.94;5073879;28;20037;-45
2022/04/30 10:31:04;;;;;;;4.68;1.75;;;;;;;26.61;28.73;102499.13;5056818;28;20020;-44
2022/04/30 10:33:34;;;;;;;5.90;1.92;;;;;;;26.62;28.63;102500.03;5074312;28;20393;-44
2022/04/30 10:36:12;;;;;;;9.25;1.52;;;;;;;26.59;29.01;102497.31;5072759;28;20071;-46
2022/04/30 10:38:42;;;;;;;4.93;2.28;;;;;;;26.55;28.86;102498.97;5073126;28;20021;-47
2022/04/30 10:41:12;;;;;;;6.43;1.80;;;;;;;26.60;28.43;102485.94;5074308;28;20446;-43
2022/04/30 10:43:42;;;;;;;6.32;2.00;;;;;;;26.61;28.68;102487.72;5074302;28;20052;-44
2022/04/30 10:46:36;;;;;;;4.03;1.48;;;;;;;26.66;28.71;102480.81;5072783;28;20035;-46
2022/04/30 10:49:06;;;;;;;6.45;2.17;;;;;;;26.67;28.81;102479.97;5073997;28;20044;-46
2022/04/30 10:51:40;;;;;;;10.10;2.15;;;;;;;26.61;28.73;102469.28;5055973;28;20485;-44
2022/04/30 10:54:10;;;;;;;;;;;;;;;26.77;28.23;102475.81;5074726;28;20432;-47
2022/04/30 10:56:40;;;;;;;5.45;1.63;;;;;;;26.70;28.25;102466.88;5074195;28;20008;-44
2022/04/30 10:59:09;;;;;;;4.70;1.90;;;;;;;26.72;27.83;102459.03;5074328;28;20054;-44
2022/04/30 11:01:37;;;;;;;5.47;1.75;;;;;;;26.71;27.91;102470.41;5072598;28;20056;-46
2022/04/30 11:04:06;;;;;;;5.90;2.15;;;;;;;26.63;27.78;102470.22;5072798;28;20492;-44
2022/04/30 11:06:35;;;;;;;3.72;1.70;;;;;;;26.64;28.08;102459.72;5072879;28;20038;-44
2022/04/30 11:09:06;;;;;;;4.28;1.73;;;;;;;26.53;27.74;102451.56;5073974;28;20021;-45
2022/04/30 11:11:36;;;;;;;3.80;1.90;;;;;;;26.48;28.33;102453.16;5073400;28;20485;-43
2022/04/30 11:14:11;;;;;;;5.22;1.73;;;;;;;26.57;28.21;102449.00;5073739;28;20055;-43
2022/04/30 11:16:42;;;;;;;4.60;1.45;;;;;;;26.62;28.32;102460.56;5072725;28;20470;-43
2022/04/30 11:19:13;;;;;;;6.95;1.80;;;;;;;26.66;27.67;102438.69;5071954;28;20055;-46
2022/04/30 11:21:44;;;;;;;4.18;1.52;;;;;;;26.62;28.13;102434.22;5088580;28;20021;-43
2022/04/30 11:24:22;;;;;;;3.78;1.33;;;;;;;26.67;27.92;102435.22;5073554;28;20078;-43
2022/04/30 11:26:55;;;;;;;5.00;1.45;;;;;;;26.68;28.36;102434.34;5073678;28;20028;-46
2022/04/30 11:29:24;;;;;;;4.47;1.55;;;;;;;26.70;28.22;102435.28;5073349;28;20056;-46
2022/04/30 11:31:54;;;;;;;5.10;1.70;;;;;;;26.69;28.21;102428.25;5073508;28;20024;-46
2022/04/30 11:34:23;;;;;;;3.10;1.42;;;;;;;26.73;28.14;102427.47;5072525;28;20029;-45
2022/04/30 11:36:54;;;;;;;3.58;1.52;;;;;;;26.78;27.93;102430.22;5073145;28;20024;-43
2022/04/30 11:39:23;;;;;;;3.00;1.48;;;;;;;26.76;28.25;102416.13;5073579;28;20115;-43
2022/04/30 11:41:54;;;;;;;2.75;1.20;;;;;;;26.77;28.12;102410.91;5073377;28;20032;-43
2022/04/30 11:44:25;;;;;;;4.95;1.70;;;;;;;26.86;27.91;102419.91;5071982;28;20032;-45
2022/04/30 11:46:54;;;;;;;3.72;1.33;;;;;;;26.87;28.05;102414.69;5087994;28;20028;-44
2022/04/30 11:49:25;;;;;;;4.50;1.23;;;;;;;26.85;28.02;102411.13;5055400;28;20367;-47
2022/04/30 11:51:56;;;;;;;6.65;1.77;;;;;;;26.80;28.07;102400.50;5055496;28;20028;-43
2022/04/30 11:54:26;;;;;;;2.90;1.20;;;;;;;26.81;28.26;102393.47;5071904;28;20048;-47
2022/04/30 11:56:57;;;;;;;3.08;1.20;;;;;;;26.86;27.80;102386.56;5073127;28;20032;-47
2022/04/30 11:59:36;;;;;;;2.92;1.50;;;;;;;26.93;27.75;102388.47;5072136;28;20020;-44
2022/04/30 12:02:07;;;;;;;4.07;1.50;;;;;;;26.96;27.98;102382.41;5073217;28;20060;-45
2022/04/30 12:04:37;;;;;;;2.75;1.35;;;;;;;26.92;27.69;102391.97;5073255;28;20024;-47
2022/04/30 12:07:06;;;;;;;2.85;1.42;;;;;;;26.84;27.57;102381.25;5073333;28;20468;-43
2022/04/30 12:09:37;;;;;;;3.80;1.70;;;;;;;26.82;27.32;102388.22;5055542;28;20491;-43
2022/04/30 12:12:24;;;;;;;4.75;1.10;;;;;;;26.84;28.05;102383.88;5072805;28;20048;-43